TimeCST,TemperatureF,Dew PointF,Humidity,Sea Level PressureIn,VisibilityMPH,Wind Direction,Wind SpeedMPH,Gust SpeedMPH,PrecipitationIn,Events,Conditions,WindDirDegrees,DateUTC
12:56 AM,8.1,3.0,80,30.59,10.0,NW,3.5,-,N/A,,Clear,310,2012-02-08 06:56:00
1:56 AM,9.0,3.9,80,30.58,10.0,Calm,Calm,-,N/A,,Clear,0,2012-02-08 07:56:00
2:56 AM,6.1,1.9,83,30.58,10.0,Calm,Calm,-,N/A,,Clear,0,2012-02-08 08:56:00
3:56 AM,7.0,1.9,80,30.56,10.0,Calm,Calm,-,N/A,,Clear,0,2012-02-08 09:56:00
4:56 AM,5.0,1.0,84,30.56,10.0,Calm,Calm,-,N/A,,Clear,0,2012-02-08 10:56:00
5:56 AM,6.1,1.0,80,30.56,10.0,Calm,Calm,-,N/A,,Clear,0,2012-02-08 11:56:00
6:56 AM,5.0,1.0,84,30.56,10.0,Calm,Calm,-,N/A,,Clear,0,2012-02-08 12:56:00
7:56 AM,5.0,-0.9,76,30.55,10.0,Calm,Calm,-,N/A,,Clear,0,2012-02-08 13:56:00
8:56 AM,10.9,6.1,81,30.54,10.0,Calm,Calm,-,N/A,,Clear,0,2012-02-08 14:56:00
9:56 AM,16.0,9.0,74,30.54,10.0,West,3.5,-,N/A,,Clear,280,2012-02-08 15:56:00
10:56 AM,19.4,8.6,63,30.52,10.0,WSW,4.6,-,N/A,,Partly Cloudy,250,2012-02-08 16:56:00
11:56 AM,23.0,9.0,55,30.50,10.0,SW,5.8,-,N/A,,Clear,230,2012-02-08 17:56:00
12:56 PM,26.1,9.0,49,30.47,10.0,SW,6.9,-,N/A,,Clear,230,2012-02-08 18:56:00
1:56 PM,28.0,10.9,49,30.43,10.0,Variable,5.8,-,N/A,,Clear,0,2012-02-08 19:56:00
2:56 PM,28.9,9.0,43,30.41,10.0,WSW,6.9,-,N/A,,Clear,240,2012-02-08 20:56:00
3:56 PM,30.0,10.0,43,30.40,10.0,West,5.8,-,N/A,,Clear,270,2012-02-08 21:56:00
4:56 PM,28.9,10.9,47,30.40,10.0,SW,5.8,-,N/A,,Clear,230,2012-02-08 22:56:00
5:56 PM,27.0,10.9,51,30.38,10.0,Calm,Calm,-,N/A,,Clear,0,2012-02-08 23:56:00
6:56 PM,24.1,12.0,60,30.38,10.0,Calm,Calm,-,N/A,,Clear,0,2012-02-09 00:56:00
7:56 PM,21.0,12.0,68,30.38,10.0,Calm,Calm,-,N/A,,Clear,0,2012-02-09 01:56:00
8:56 PM,18.0,10.9,74,30.36,10.0,Calm,Calm,-,N/A,,Clear,0,2012-02-09 02:56:00
9:56 PM,18.0,12.0,78,30.36,10.0,Calm,Calm,-,N/A,,Clear,0,2012-02-09 03:56:00
10:56 PM,14.0,10.0,84,30.35,10.0,SSW,4.6,-,N/A,,Clear,200,2012-02-09 04:56:00
11:56 PM,19.0,14.0,81,30.33,10.0,Calm,Calm,-,N/A,,Clear,0,2012-02-09 05:56:00